createdAt,value
2023-05-05T00:01:23.279Z,16.23
2023-05-05T00:03:51.160Z,16.00
2023-05-05T00:06:19.276Z,16.63
2023-05-05T00:08:47.334Z,16.17
2023-05-05T00:11:15.576Z,16.77
2023-05-05T00:13:43.436Z,16.50
2023-05-05T00:16:12.679Z,16.73
2023-05-05T00:18:40.605Z,14.57
2023-05-05T00:21:08.810Z,14.27
2023-05-05T00:23:36.751Z,14.93
2023-05-05T00:26:04.549Z,13.65
2023-05-05T00:28:32.385Z,13.73
2023-05-05T00:31:00.516Z,12.80
2023-05-05T00:33:29.941Z,11.95
2023-05-05T00:35:58.014Z,11.38
2023-05-05T00:38:26.346Z,11.98
2023-05-05T00:40:54.764Z,11.93
2023-05-05T00:43:22.626Z,10.82
2023-05-05T00:45:53.337Z,10.85
2023-05-05T00:48:24.451Z,10.90
2023-05-05T00:50:53.818Z,10.82
2023-05-05T00:53:22.092Z,10.38
2023-05-05T00:55:50.348Z,11.48
2023-05-05T00:58:18.800Z,11.13
2023-05-05T01:00:46.765Z,10.82
2023-05-05T01:03:16.275Z,10.85
2023-05-05T01:05:52.883Z,10.15
2023-05-05T01:08:31.747Z,9.88
2023-05-05T01:11:03.194Z,9.90
2023-05-05T01:13:38.489Z,10.23
2023-05-05T01:16:13.172Z,9.60
2023-05-05T01:18:47.121Z,10.05
2023-05-05T01:21:21.254Z,9.55
2023-05-05T01:24:03.975Z,9.45
2023-05-05T01:26:42.044Z,9.98
2023-05-05T01:29:27.908Z,9.90
2023-05-05T01:31:58.642Z,9.98
2023-05-05T01:34:27.931Z,10.68
2023-05-05T01:36:58.267Z,9.90
2023-05-05T01:39:29.676Z,10.25
2023-05-05T01:41:59.285Z,9.43
2023-05-05T01:44:28.912Z,9.60
2023-05-05T01:46:59.819Z,9.57
2023-05-05T01:49:28.459Z,9.77
2023-05-05T01:51:57.657Z,9.65
2023-05-05T01:54:26.036Z,9.35
2023-05-05T01:56:54.948Z,9.05
2023-05-05T01:59:24.523Z,9.43
2023-05-05T02:01:52.719Z,9.00
2023-05-05T02:04:23.476Z,9.60
2023-05-05T02:06:53.287Z,9.25
2023-05-05T02:09:22.660Z,9.23
2023-05-05T02:11:50.825Z,9.95
2023-05-05T02:14:20.383Z,9.48
2023-05-05T02:16:48.435Z,9.25
2023-05-05T02:19:16.723Z,9.65
2023-05-05T02:21:46.325Z,9.32
2023-05-05T02:24:14.178Z,9.52
2023-05-05T02:26:42.523Z,10.10
2023-05-05T02:29:16.116Z,9.90
2023-05-05T02:31:46.402Z,9.60
2023-05-05T02:34:17.528Z,10.05
2023-05-05T02:36:47.580Z,10.60
2023-05-05T02:39:18.480Z,9.98
2023-05-05T02:41:48.327Z,10.30
2023-05-05T02:44:24.998Z,8.90
2023-05-05T02:46:54.753Z,9.38
2023-05-05T02:49:24.401Z,9.00
2023-05-05T02:51:59.196Z,8.75
2023-05-05T02:54:32.548Z,9.57
2023-05-05T02:57:01.700Z,9.43
2023-05-05T02:59:34.421Z,8.40
2023-05-05T03:02:11.077Z,7.97
2023-05-05T03:04:40.521Z,8.57
2023-05-05T03:07:11.724Z,8.07
2023-05-05T03:09:42.805Z,8.77
2023-05-05T03:12:11.619Z,8.77
2023-05-05T03:14:50.003Z,8.57
2023-05-05T03:17:18.587Z,9.05
2023-05-05T03:19:47.971Z,8.57
2023-05-05T03:22:18.673Z,8.93
2023-05-05T03:24:50.888Z,8.13
2023-05-05T03:27:23.232Z,8.23
2023-05-05T03:29:52.639Z,8.63
2023-05-05T03:32:20.910Z,8.00
2023-05-05T03:34:49.054Z,7.53
2023-05-05T03:37:18.283Z,7.25
2023-05-05T03:39:46.207Z,7.22
2023-05-05T03:42:14.109Z,7.88
2023-05-05T03:44:42.153Z,7.93
2023-05-05T03:47:10.089Z,7.70
2023-05-05T03:49:40.113Z,7.47
2023-05-05T03:52:08.741Z,7.90
2023-05-05T03:54:37.982Z,7.35
2023-05-05T03:57:05.910Z,7.20
2023-05-05T03:59:33.752Z,6.82
2023-05-05T04:02:03.744Z,7.78
2023-05-05T04:04:32.615Z,7.47
2023-05-05T04:07:00.683Z,7.20
2023-05-05T04:09:28.637Z,7.28
2023-05-05T04:11:58.083Z,7.40
2023-05-05T04:14:26.219Z,7.70
2023-05-05T04:16:54.153Z,7.07
2023-05-05T04:19:22.317Z,7.43
2023-05-05T04:21:52.625Z,8.20
2023-05-05T04:24:24.659Z,7.30
2023-05-05T04:26:54.166Z,7.25
2023-05-05T04:29:24.117Z,7.35
2023-05-05T04:31:51.968Z,7.53
2023-05-05T04:34:19.934Z,7.90
2023-05-05T04:36:49.942Z,7.47
2023-05-05T04:39:18.080Z,7.30
2023-05-05T04:41:45.929Z,7.18
2023-05-05T04:44:13.859Z,7.50
2023-05-05T04:46:43.107Z,7.57
2023-05-05T04:49:11.244Z,7.38
2023-05-05T04:51:41.838Z,7.72
2023-05-05T04:54:10.031Z,6.88
2023-05-05T04:56:37.962Z,7.60
2023-05-05T04:59:06.835Z,7.82
2023-05-05T05:01:37.755Z,7.25
2023-05-05T05:04:08.036Z,7.60
2023-05-05T05:06:36.600Z,7.57
2023-05-05T05:09:04.654Z,6.68
2023-05-05T05:11:32.501Z,7.20
2023-05-05T05:14:01.326Z,7.05
2023-05-05T05:16:30.758Z,7.15
2023-05-05T05:19:01.350Z,6.85
2023-05-05T05:21:31.837Z,7.43
2023-05-05T05:24:00.742Z,7.03
2023-05-05T05:26:28.776Z,7.57
2023-05-05T05:28:56.732Z,8.10
2023-05-05T05:31:25.666Z,7.75
2023-05-05T05:33:54.147Z,7.32
2023-05-05T05:36:22.044Z,7.88
2023-05-05T05:38:51.678Z,8.40
2023-05-05T05:41:19.601Z,7.75
2023-05-05T05:43:47.489Z,7.60
2023-05-05T05:46:15.569Z,7.45
2023-05-05T05:48:44.489Z,7.00
2023-05-05T05:51:12.505Z,6.97
2023-05-05T05:53:40.476Z,7.55
2023-05-05T05:56:11.356Z,7.22
2023-05-05T05:58:39.275Z,7.28
2023-05-05T06:01:07.969Z,6.88
2023-05-05T06:03:36.579Z,7.47
2023-05-05T06:06:04.683Z,7.80
2023-05-05T06:08:32.853Z,7.40
2023-05-05T06:11:01.277Z,7.10
2023-05-05T06:13:31.863Z,7.05
2023-05-05T06:15:59.927Z,7.43
2023-05-05T06:18:28.928Z,7.05
2023-05-05T06:20:57.670Z,6.95
2023-05-05T06:23:28.660Z,6.78
2023-05-05T06:26:01.361Z,6.78
2023-05-05T06:28:29.205Z,6.93
2023-05-05T06:30:58.860Z,6.55
2023-05-05T06:33:26.790Z,6.78
2023-05-05T06:35:54.767Z,5.93
2023-05-05T06:38:22.761Z,6.25
2023-05-05T06:40:50.743Z,6.60
2023-05-05T06:43:18.918Z,6.18
2023-05-05T06:45:53.901Z,6.15
2023-05-05T06:48:23.120Z,6.15
2023-05-05T06:50:50.987Z,6.22
2023-05-05T06:53:19.106Z,5.63
2023-05-05T06:55:47.961Z,6.38
2023-05-05T06:58:15.908Z,6.32
2023-05-05T07:00:44.262Z,6.13
2023-05-05T07:03:12.623Z,6.35
2023-05-05T07:05:42.001Z,6.03
2023-05-05T07:08:11.327Z,5.72
2023-05-05T07:10:39.291Z,5.85
2023-05-05T07:13:07.482Z,5.80
2023-05-05T07:15:35.349Z,6.15
2023-05-05T07:18:03.225Z,5.97
2023-05-05T07:20:31.339Z,5.55
2023-05-05T07:23:00.635Z,5.80
2023-05-05T07:25:28.782Z,5.50
2023-05-05T07:27:56.761Z,5.35
2023-05-05T07:30:25.969Z,4.75
2023-05-05T07:32:55.231Z,4.45
2023-05-05T07:35:23.427Z,4.10
2023-05-05T07:37:51.316Z,4.18
2023-05-05T07:40:20.697Z,4.40
2023-05-05T07:42:48.611Z,4.28
2023-05-05T07:45:16.408Z,4.20
2023-05-05T07:47:44.367Z,4.53
2023-05-05T07:50:12.708Z,4.13
2023-05-05T07:55:11.506Z,4.10
2023-05-05T07:57:41.055Z,3.70
2023-05-05T08:00:10.267Z,3.80
2023-05-05T08:02:44.089Z,3.65
2023-05-05T08:05:12.799Z,3.75
2023-05-05T08:07:41.874Z,3.90
2023-05-05T08:10:10.713Z,3.78
2023-05-05T08:12:41.488Z,3.40
2023-05-05T08:15:09.805Z,3.78
2023-05-05T08:17:44.724Z,3.80
2023-05-05T08:20:12.990Z,4.18
2023-05-05T08:22:41.844Z,3.90
2023-05-05T08:25:11.036Z,3.78
2023-05-05T08:27:38.997Z,4.00
2023-05-05T08:30:09.221Z,3.95
2023-05-05T08:32:38.439Z,4.10
2023-05-05T08:35:07.448Z,3.80
2023-05-05T08:37:36.127Z,3.90
2023-05-05T08:40:04.132Z,3.83
2023-05-05T08:42:37.046Z,3.60
2023-05-05T08:45:06.877Z,4.05
2023-05-05T08:47:37.204Z,3.88
2023-05-05T08:50:07.095Z,3.85
2023-05-05T08:52:38.945Z,3.50
2023-05-05T08:55:11.302Z,4.00
2023-05-05T08:57:42.316Z,3.92
2023-05-05T09:00:12.021Z,4.00
2023-05-05T09:02:42.047Z,4.60
2023-05-05T09:05:10.678Z,4.28
2023-05-05T09:07:38.983Z,4.32
2023-05-05T09:10:08.025Z,4.82
2023-05-05T09:12:36.453Z,4.57
2023-05-05T09:15:04.525Z,5.15
2023-05-05T09:17:32.456Z,5.40
2023-05-05T09:20:05.679Z,4.80
2023-05-05T09:22:34.593Z,5.05
2023-05-05T09:25:02.584Z,5.35
2023-05-05T09:27:30.537Z,5.15
2023-05-05T09:29:58.728Z,25.85
2023-05-05T09:32:28.100Z,4.60
2023-05-05T09:34:58.538Z,4.50
2023-05-05T09:37:31.636Z,4.88
2023-05-05T09:40:00.637Z,5.07
2023-05-05T09:42:28.581Z,4.32
2023-05-05T09:44:59.119Z,3.90
2023-05-05T09:47:35.307Z,4.22
2023-05-05T09:50:04.239Z,4.30
2023-05-05T09:52:33.548Z,4.45
2023-05-05T09:55:01.541Z,4.63
2023-05-05T09:57:30.414Z,5.72
2023-05-05T09:59:58.990Z,5.95
2023-05-05T10:02:33.863Z,5.18
2023-05-05T10:05:09.213Z,4.70
2023-05-05T10:07:38.918Z,4.45
2023-05-05T10:10:08.314Z,4.75
2023-05-05T10:12:37.679Z,5.35
2023-05-05T10:15:06.906Z,5.05
2023-05-05T10:17:37.407Z,4.88
2023-05-05T10:20:05.844Z,4.72
2023-05-05T10:22:34.537Z,5.60
2023-05-05T10:25:06.610Z,5.18
2023-05-05T10:27:39.987Z,4.78
2023-05-05T10:30:08.956Z,4.07
2023-05-05T10:35:10.284Z,3.50
2023-05-05T10:37:38.646Z,3.88
2023-05-05T10:40:09.472Z,2.75
2023-05-05T10:42:38.629Z,3.10
2023-05-05T10:45:07.215Z,3.40
2023-05-05T10:47:35.622Z,3.10
2023-05-05T10:50:08.767Z,3.85
2023-05-05T10:52:38.368Z,3.20
2023-05-05T10:55:12.649Z,3.10
2023-05-05T10:57:41.773Z,3.83
2023-05-05T11:00:10.938Z,3.00
2023-05-05T11:02:38.874Z,3.17
2023-05-05T11:05:08.308Z,3.35
2023-05-05T11:07:36.421Z,3.40
2023-05-05T11:10:06.152Z,2.80
2023-05-05T11:12:59.460Z,2.65
2023-05-05T11:15:37.496Z,2.88
2023-05-05T11:18:07.769Z,2.97
2023-05-05T11:20:54.920Z,2.83
2023-05-05T11:23:23.313Z,3.83
2023-05-05T11:25:51.976Z,2.78
2023-05-05T11:28:23.265Z,3.35
2023-05-05T11:31:09.967Z,3.42
2023-05-05T11:33:38.881Z,3.88
2023-05-05T11:36:07.655Z,3.30
2023-05-05T11:38:42.772Z,3.22
2023-05-05T11:41:13.452Z,3.35
2023-05-05T11:43:42.856Z,3.42
2023-05-05T11:46:10.861Z,2.90
2023-05-05T11:48:45.845Z,3.10
2023-05-05T11:51:14.340Z,3.58
2023-05-05T11:53:43.527Z,3.28
2023-05-05T11:56:18.720Z,3.15
2023-05-05T11:58:47.949Z,3.30
2023-05-05T12:01:17.394Z,2.97
2023-05-05T12:03:47.169Z,3.40
2023-05-05T12:06:16.949Z,3.55
2023-05-05T12:08:46.824Z,2.83
2023-05-05T12:11:14.652Z,2.70
2023-05-05T12:13:45.381Z,3.30
2023-05-05T12:16:16.832Z,2.50
2023-05-05T12:18:46.396Z,3.83
2023-05-05T12:21:16.941Z,3.20
2023-05-05T12:23:44.863Z,2.63
2023-05-05T12:26:25.358Z,2.90
2023-05-05T12:28:53.431Z,2.60
2023-05-05T12:31:22.657Z,2.80
2023-05-05T12:33:51.423Z,2.90
2023-05-05T12:36:20.400Z,3.13
2023-05-05T12:38:48.187Z,2.67
2023-05-05T12:41:19.295Z,2.60
2023-05-05T12:43:47.492Z,2.28
2023-05-05T12:46:17.500Z,2.80
2023-05-05T12:48:48.296Z,2.88
2023-05-05T12:51:19.456Z,3.00
2023-05-05T12:53:48.752Z,3.10
2023-05-05T12:56:35.929Z,3.15
2023-05-05T12:59:04.586Z,3.58
2023-05-05T13:01:32.841Z,3.10
2023-05-05T13:04:09.721Z,3.70
2023-05-05T13:06:38.649Z,2.88
2023-05-05T13:09:07.112Z,3.10
2023-05-05T13:11:40.283Z,3.28
2023-05-05T13:14:09.205Z,2.72
2023-05-05T13:16:37.121Z,3.00
2023-05-05T13:19:05.147Z,3.90
2023-05-05T13:21:34.448Z,3.47
2023-05-05T13:24:20.748Z,3.72
2023-05-05T13:26:50.722Z,3.22
2023-05-05T13:29:18.562Z,3.45
2023-05-05T13:31:46.828Z,3.38
2023-05-05T13:34:15.177Z,3.35
2023-05-05T13:36:44.325Z,3.33
2023-05-05T13:39:12.709Z,3.75
2023-05-05T13:41:40.568Z,3.50
2023-05-05T13:44:08.807Z,4.07
2023-05-05T13:46:36.863Z,3.85
2023-05-05T13:49:05.217Z,3.70
2023-05-05T13:51:34.636Z,3.85
2023-05-05T13:54:04.697Z,3.30
2023-05-05T13:56:32.726Z,3.50
2023-05-05T13:59:00.950Z,3.53
2023-05-05T14:01:29.337Z,3.22
2023-05-05T14:03:57.740Z,2.80
2023-05-05T14:06:26.483Z,3.28
2023-05-05T14:08:54.544Z,3.08
2023-05-05T14:11:23.702Z,3.22
2023-05-05T14:13:52.075Z,3.65
2023-05-05T14:16:20.165Z,3.35
2023-05-05T14:18:48.308Z,3.50
2023-05-05T14:21:16.118Z,3.50
2023-05-05T14:23:44.051Z,3.30
2023-05-05T14:26:11.995Z,3.45
2023-05-05T14:28:42.269Z,2.90
2023-05-05T14:31:11.260Z,3.58
2023-05-05T14:33:39.191Z,3.58
2023-05-05T14:36:07.508Z,3.10
2023-05-05T14:38:35.577Z,3.58
2023-05-05T14:41:05.225Z,3.60
2023-05-05T14:43:33.384Z,3.20
2023-05-05T14:46:07.241Z,3.22
2023-05-05T14:48:35.700Z,3.13
2023-05-05T14:51:04.270Z,3.20
2023-05-05T14:53:32.080Z,3.22
2023-05-05T14:56:02.265Z,3.15
2023-05-05T14:58:31.127Z,3.70
2023-05-05T15:00:59.049Z,3.25
2023-05-05T15:03:28.592Z,2.80
2023-05-05T15:05:58.313Z,2.97
2023-05-05T15:08:26.764Z,2.90
2023-05-05T15:10:55.750Z,3.60
2023-05-05T15:13:23.580Z,2.85
2023-05-05T15:15:51.586Z,3.00
2023-05-05T15:18:19.514Z,3.17
2023-05-05T15:20:49.836Z,3.08
2023-05-05T15:23:19.512Z,2.97
2023-05-05T15:25:48.530Z,3.78
2023-05-05T15:28:17.315Z,3.40
2023-05-05T15:30:45.208Z,3.60
2023-05-05T15:33:12.998Z,3.90
2023-05-05T15:35:42.716Z,3.47
2023-05-05T15:38:12.060Z,3.50
2023-05-05T15:40:41.531Z,4.13
2023-05-05T15:43:09.483Z,3.20
2023-05-05T15:45:38.585Z,3.83
2023-05-05T15:48:07.100Z,4.00
2023-05-05T15:50:34.947Z,3.33
2023-05-05T15:53:02.742Z,3.40
2023-05-05T15:55:32.014Z,3.50
2023-05-05T15:57:59.821Z,3.95
2023-05-05T16:00:28.205Z,3.85
2023-05-05T16:02:56.234Z,4.22
2023-05-05T16:05:24.195Z,4.00
2023-05-05T16:07:53.650Z,4.15
2023-05-05T16:10:21.707Z,4.53
2023-05-05T16:12:52.545Z,3.75
2023-05-05T16:15:20.748Z,4.38
2023-05-05T16:17:48.685Z,5.95
2023-05-05T16:20:17.752Z,4.47
2023-05-05T16:22:46.002Z,4.00
2023-05-05T16:25:13.915Z,5.00
2023-05-05T16:27:41.777Z,5.32
2023-05-05T16:30:12.873Z,4.60
2023-05-05T16:32:40.802Z,5.50
2023-05-05T16:35:09.420Z,5.68
2023-05-05T16:37:37.386Z,5.32
2023-05-05T16:40:07.605Z,5.30
2023-05-05T16:42:35.544Z,5.18
2023-05-05T16:45:04.708Z,6.15
2023-05-05T16:47:36.189Z,6.93
2023-05-05T16:50:04.235Z,7.10
2023-05-05T16:52:32.152Z,9.43
2023-05-05T16:55:00.012Z,6.32
2023-05-05T16:57:27.917Z,4.68
2023-05-05T16:59:56.377Z,5.10
2023-05-05T17:02:24.253Z,3.90
2023-05-05T17:04:54.920Z,3.55
2023-05-05T17:07:23.049Z,3.88
2023-05-05T17:09:51.560Z,3.65
2023-05-05T17:12:19.474Z,3.85
2023-05-05T17:14:52.910Z,3.95
2023-05-05T17:17:20.918Z,4.38
2023-05-05T17:19:49.150Z,3.50
2023-05-05T17:22:18.412Z,4.15
2023-05-05T17:24:47.835Z,4.82
2023-05-05T17:27:16.915Z,4.40
2023-05-05T17:29:44.822Z,4.13
2023-05-05T17:32:15.988Z,4.75
2023-05-05T17:34:43.854Z,5.15
2023-05-05T17:37:12.917Z,5.95
2023-05-05T17:39:43.847Z,6.72
2023-05-05T17:42:11.850Z,5.60
2023-05-05T17:44:39.613Z,4.85
2023-05-05T17:47:09.049Z,3.70
2023-05-05T17:49:37.422Z,4.53
2023-05-05T17:52:06.991Z,4.32
2023-05-05T17:54:35.404Z,5.45
2023-05-05T17:57:05.352Z,5.20
2023-05-05T17:59:33.762Z,5.43
2023-05-05T18:02:02.443Z,4.70
2023-05-05T18:04:30.829Z,5.03
2023-05-05T18:06:58.716Z,5.85
2023-05-05T18:09:28.401Z,4.80
2023-05-05T18:11:58.211Z,2.95
2023-05-05T18:14:27.589Z,2.00
2023-05-05T18:16:55.603Z,2.80
2023-05-05T18:19:24.416Z,4.05
2023-05-05T18:21:54.319Z,3.50
2023-05-05T18:24:23.097Z,4.05
2023-05-05T18:26:52.692Z,4.88
2023-05-05T18:29:23.203Z,5.75
2023-05-05T18:31:54.840Z,6.03
2023-05-05T18:34:23.133Z,5.20
2023-05-05T18:36:54.615Z,6.07
2023-05-05T18:39:23.152Z,5.65
2023-05-05T18:41:51.060Z,13.18
2023-05-05T18:44:19.316Z,8.45
2023-05-05T18:46:47.966Z,6.88
2023-05-05T18:49:18.250Z,10.73
2023-05-05T18:51:46.361Z,11.35
2023-05-05T18:54:15.316Z,8.02
2023-05-05T18:56:43.336Z,4.70
2023-05-05T18:59:11.354Z,4.10
2023-05-05T19:01:39.646Z,4.53
2023-05-05T19:04:18.727Z,5.82
2023-05-05T19:06:57.218Z,6.35
2023-05-05T19:09:25.278Z,6.28
2023-05-05T19:11:53.157Z,4.93
2023-05-05T19:14:20.989Z,4.68
2023-05-05T19:16:48.991Z,5.60
2023-05-05T19:19:17.262Z,5.10
2023-05-05T19:21:45.237Z,5.90
2023-05-05T19:24:14.604Z,5.25
2023-05-05T19:26:44.090Z,5.97
2023-05-05T19:29:11.988Z,5.80
2023-05-05T19:31:39.980Z,5.10
2023-05-05T19:34:07.947Z,4.80
2023-05-05T19:36:36.791Z,5.90
2023-05-05T19:39:05.827Z,6.43
2023-05-05T19:41:37.836Z,5.68
2023-05-05T19:44:07.232Z,6.10
2023-05-05T19:46:37.240Z,6.55
2023-05-05T19:49:05.311Z,6.57
2023-05-05T19:51:33.091Z,6.88
2023-05-05T19:54:01.470Z,7.75
2023-05-05T19:56:29.461Z,7.43
2023-05-05T19:59:02.086Z,6.47
2023-05-05T20:01:30.365Z,7.78
2023-05-05T20:03:59.604Z,7.25
2023-05-05T20:06:28.016Z,6.07
2023-05-05T20:08:56.386Z,6.32
2023-05-05T20:11:24.351Z,6.03
2023-05-05T20:13:53.084Z,6.47
2023-05-05T20:16:22.588Z,6.38
2023-05-05T20:18:50.508Z,6.13
2023-05-05T20:21:19.551Z,6.50
2023-05-05T20:23:47.341Z,7.53
2023-05-05T20:26:15.751Z,9.75
2023-05-05T20:28:45.270Z,6.75
2023-05-05T20:31:14.856Z,6.97
2023-05-05T20:33:44.176Z,7.22
2023-05-05T20:36:12.070Z,7.15
2023-05-05T20:38:39.977Z,6.18
2023-05-05T20:41:07.888Z,7.13
2023-05-05T20:43:37.471Z,6.93
2023-05-05T20:46:05.390Z,6.60
2023-05-05T20:48:33.278Z,7.32
2023-05-05T20:51:05.322Z,6.68
2023-05-05T20:53:33.310Z,8.25
2023-05-05T20:56:01.140Z,8.15
2023-05-05T20:58:28.956Z,6.97
2023-05-05T21:00:56.944Z,6.85
2023-05-05T21:03:24.799Z,6.95
2023-05-05T21:05:52.710Z,7.63
2023-05-05T21:08:21.909Z,6.97
2023-05-05T21:10:49.709Z,6.32
2023-05-05T21:13:19.361Z,6.35
2023-05-05T21:15:47.322Z,6.68
2023-05-05T21:18:16.806Z,5.93
2023-05-05T21:20:44.600Z,5.72
2023-05-05T21:23:12.827Z,6.13
2023-05-05T21:25:42.003Z,6.32
2023-05-05T21:28:09.854Z,6.00
2023-05-05T21:30:38.078Z,6.70
2023-05-05T21:33:06.135Z,6.40
2023-05-05T21:35:34.074Z,6.25
2023-05-05T21:38:02.484Z,6.45
2023-05-05T21:40:30.418Z,6.32
2023-05-05T21:42:59.543Z,6.45
2023-05-05T21:45:29.260Z,6.22
2023-05-05T21:47:57.705Z,6.20
2023-05-05T21:50:27.563Z,6.97
2023-05-05T21:52:56.074Z,6.65
2023-05-05T21:55:23.960Z,6.72
2023-05-05T21:57:51.826Z,6.53
2023-05-05T22:00:21.190Z,6.70
2023-05-05T22:02:49.189Z,6.15
2023-05-05T22:05:17.081Z,6.90
2023-05-05T22:08:05.774Z,6.40
2023-05-05T22:10:33.648Z,7.40
2023-05-05T22:13:01.525Z,7.18
2023-05-05T22:15:38.947Z,7.13
2023-05-05T22:18:10.952Z,7.35
2023-05-05T22:20:39.042Z,7.60
2023-05-05T22:23:07.652Z,7.60
2023-05-05T22:25:35.745Z,8.25
2023-05-05T22:28:03.598Z,8.55
2023-05-05T22:30:32.921Z,8.27
2023-05-05T22:33:00.913Z,8.35
2023-05-05T22:35:28.835Z,8.68
2023-05-05T22:37:57.238Z,8.77
2023-05-05T22:40:25.556Z,8.30
2023-05-05T22:42:53.452Z,9.10
2023-05-05T22:45:22.587Z,9.43
2023-05-05T22:47:51.842Z,10.32
2023-05-05T22:50:19.740Z,9.70
2023-05-05T22:52:47.761Z,10.15
2023-05-05T22:55:16.122Z,9.93
2023-05-05T22:57:44.035Z,10.07
2023-05-05T23:00:12.581Z,9.75
2023-05-05T23:02:41.689Z,10.05
2023-05-05T23:05:11.919Z,9.65
2023-05-05T23:07:40.005Z,10.80
2023-05-05T23:10:08.200Z,11.07
2023-05-05T23:12:37.176Z,11.70
2023-05-05T23:15:05.665Z,11.13
2023-05-05T23:17:34.037Z,12.48
2023-05-05T23:20:04.494Z,11.70
2023-05-05T23:22:34.504Z,12.73
2023-05-05T23:25:03.379Z,13.00
2023-05-05T23:27:32.066Z,13.27
2023-05-05T23:29:59.921Z,13.10
2023-05-05T23:32:28.027Z,13.05
2023-05-05T23:34:55.892Z,12.70
2023-05-05T23:37:25.588Z,13.68
2023-05-05T23:39:54.959Z,13.60
2023-05-05T23:42:24.056Z,14.57
2023-05-05T23:44:53.127Z,14.18
2023-05-05T23:47:20.949Z,14.25
2023-05-05T23:49:49.808Z,14.35
2023-05-05T23:52:17.783Z,14.00
2023-05-05T23:54:45.728Z,12.98
2023-05-05T23:57:14.966Z,13.43
2023-05-05T23:59:42.858Z,14.98
